Time;durP1;ratioP1;P1;durP2;ratioP2;P2;SDS_P1;SDS_P2;PMS_P1;PMS_P2;Temp;Humidity;BMP_temperature;BMP_pressure;BME280_temperature;BME280_humidity;BME280_pressure;Samples;Min_cycle;Max_cycle;Signal;HPM_P1;HPM_P2
2022/05/24 00:00:17;;;;;;;0.50;0.50;;;;;;;;;;4179082;28;20072;-34
2022/05/24 00:02:19;;;;;;;0.52;0.45;;;;;;;;;;4211121;28;20476;-34
2022/05/24 00:04:20;;;;;;;1.38;0.40;;;;;;;;;;4179100;28;20488;-34
2022/05/24 00:06:21;;;;;;;0.95;0.50;;;;;;;;;;4177958;28;20136;-34
2022/05/24 00:08:23;;;;;;;1.10;0.70;;;;;;;;;;4178028;28;20569;-34
2022/05/24 00:10:27;;;;;;;0.22;0.22;;;;;;;;;;4179392;28;20516;-34
2022/05/24 00:12:28;;;;;;;0.65;0.40;;;;;;;;;;4179355;28;20510;-34
2022/05/24 00:16:49;;;;;;;0.35;0.30;;;;;;;;;;4179740;28;20061;-34
2022/05/24 00:18:50;;;;;;;0.90;0.60;;;;;;;;;;4178745;28;20114;-34
2022/05/24 00:20:56;;;;;;;0.47;0.47;;;;;;;;;;4179098;28;20052;-34
2022/05/24 00:22:58;;;;;;;1.15;0.50;;;;;;;;;;4179221;28;20488;-34
2022/05/24 00:25:01;;;;;;;0.65;0.60;;;;;;;;;;4179182;28;20045;-34
2022/05/24 00:27:02;;;;;;;0.70;0.52;;;;;;;;;;4179242;28;20041;-34
2022/05/24 00:29:03;;;;;;;0.32;0.32;;;;;;;;;;4181950;28;20055;-34
2022/05/24 00:31:04;;;;;;;0.68;0.60;;;;;;;;;;4182407;28;20090;-33
2022/05/24 00:33:05;;;;;;;1.08;0.50;;;;;;;;;;4182290;28;20049;-33
2022/05/24 00:35:07;;;;;;;1.20;0.55;;;;;;;;;;4197584;28;20142;-33
2022/05/24 00:37:08;;;;;;;1.02;0.52;;;;;;;;;;4182255;28;20090;-33
2022/05/24 00:39:09;;;;;;;0.57;0.47;;;;;;;;;;4197032;28;20484;-33
2022/05/24 00:41:17;;;;;;;0.43;0.43;;;;;;;;;;4182028;28;20053;-34
2022/05/24 00:43:31;;;;;;;0.52;0.50;;;;;;;;;;4182249;28;20353;-34
2022/05/24 00:45:35;;;;;;;0.47;0.47;;;;;;;;;;4181406;28;20443;-33
2022/05/24 00:47:37;;;;;;;0.80;0.70;;;;;;;;;;4181831;28;20045;-33
2022/05/24 00:49:40;;;;;;;0.77;0.50;;;;;;;;;;4181150;28;20064;-33
2022/05/24 00:51:49;;;;;;;2.60;0.40;;;;;;;;;;4181637;28;20052;-33
2022/05/24 00:53:52;;;;;;;0.60;0.50;;;;;;;;;;4181613;28;20485;-33
2022/05/24 00:56:06;;;;;;;2.00;0.40;;;;;;;;;;4181600;28;20485;-33
2022/05/24 00:58:11;;;;;;;0.82;0.38;;;;;;;;;;4181604;28;20049;-34
2022/05/24 01:00:19;;;;;;;0.50;0.40;;;;;;;;;;4181035;28;20041;-34
2022/05/24 01:02:20;;;;;;;0.57;0.50;;;;;;;;;;4181469;28;20534;-34
2022/05/24 01:04:24;;;;;;;0.55;0.50;;;;;;;;;;4181414;28;20049;-34
2022/05/24 01:06:25;;;;;;;0.70;0.60;;;;;;;;;;4181587;28;20110;-34
2022/05/24 01:08:26;;;;;;;0.60;0.50;;;;;;;;;;4213652;28;20044;-34
2022/05/24 01:10:48;;;;;;;1.40;0.60;;;;;;;;;;4181343;28;20048;-34
2022/05/24 01:12:55;;;;;;;0.30;0.30;;;;;;;;;;4181421;28;20508;-34
2022/05/24 01:14:57;;;;;;;0.55;0.50;;;;;;;;;;4180933;28;20049;-34
2022/05/24 01:16:59;;;;;;;0.80;0.60;;;;;;;;;;4180413;28;20056;-34
2022/05/24 01:19:04;;;;;;;1.15;0.43;;;;;;;;;;4181364;28;20045;-34
2022/05/24 01:21:08;;;;;;;1.33;0.60;;;;;;;;;;4180316;28;20094;-34
2022/05/24 01:23:28;;;;;;;0.50;0.32;;;;;;;;;;4181497;28;20190;-34
2022/05/24 01:25:44;;;;;;;1.38;0.50;;;;;;;;;;4181371;28;20086;-34
2022/05/24 01:27:45;;;;;;;0.40;0.40;;;;;;;;;;4181467;28;20086;-35
2022/05/24 01:29:46;;;;;;;0.70;0.55;;;;;;;;;;4180730;28;20094;-34
2022/05/24 01:36:31;;;;;;;0.50;0.47;;;;;;;;;;4181217;28;20466;-34
2022/05/24 01:38:32;;;;;;;0.90;0.60;;;;;;;;;;4180498;28;20496;-34
2022/05/24 01:40:34;;;;;;;0.60;0.40;;;;;;;;;;4180701;28;20396;-33
2022/05/24 01:42:35;;;;;;;0.60;0.50;;;;;;;;;;4181036;28;20049;-34
2022/05/24 01:44:36;;;;;;;0.80;0.50;;;;;;;;;;4180716;28;20060;-34
2022/05/24 01:46:41;;;;;;;2.15;0.90;;;;;;;;;;4181204;28;20084;-34
2022/05/24 01:48:46;;;;;;;0.65;0.38;;;;;;;;;;4180894;28;20052;-34
2022/05/24 01:50:48;;;;;;;1.77;0.75;;;;;;;;;;4180912;28;20057;-34
2022/05/24 01:52:52;;;;;;;0.75;0.60;;;;;;;;;;4180763;28;20056;-34
2022/05/24 01:55:03;;;;;;;0.77;0.60;;;;;;;;;;4180925;28;20045;-34
2022/05/24 01:57:10;;;;;;;1.00;0.70;;;;;;;;;;4179841;28;20045;-33
2022/05/24 01:59:12;;;;;;;0.73;0.50;;;;;;;;;;4180102;28;20107;-33
2022/05/24 02:01:32;;;;;;;0.68;0.40;;;;;;;;;;4180740;28;20075;-33
2022/05/24 02:03:33;;;;;;;0.50;0.50;;;;;;;;;;4180615;28;20044;-33
2022/05/24 02:05:38;;;;;;;0.63;0.40;;;;;;;;;;4180557;28;20447;-33
2022/05/24 02:07:40;;;;;;;1.30;0.60;;;;;;;;;;4180767;28;20053;-34
2022/05/24 02:09:42;;;;;;;1.27;0.60;;;;;;;;;;4180470;28;20633;-34
2022/05/24 02:11:44;;;;;;;0.73;0.40;;;;;;;;;;4180531;28;20045;-34
2022/05/24 02:13:46;;;;;;;0.98;0.52;;;;;;;;;;4179963;28;20085;-34
2022/05/24 02:15:48;;;;;;;0.85;0.60;;;;;;;;;;4180516;28;20125;-34
2022/05/24 02:17:56;;;;;;;0.70;0.70;;;;;;;;;;4180565;28;20052;-34
2022/05/24 02:19:58;;;;;;;0.68;0.30;;;;;;;;;;4180583;28;20076;-34
2022/05/24 02:22:02;;;;;;;0.45;0.45;;;;;;;;;;4180350;28;20044;-34
2022/05/24 02:24:13;;;;;;;0.88;0.57;;;;;;;;;;4180379;28;20190;-34
2022/05/24 02:26:15;;;;;;;0.90;0.60;;;;;;;;;;4195659;28;20492;-34
2022/05/24 02:28:17;;;;;;;1.05;0.57;;;;;;;;;;4180263;28;20051;-34
2022/05/24 02:30:20;;;;;;;0.75;0.50;;;;;;;;;;4179878;28;20159;-34
2022/05/24 02:32:22;;;;;;;0.50;0.47;;;;;;;;;;4180151;28;20053;-34
2022/05/24 02:34:22;;;;;;;0.60;0.40;;;;;;;;;;4179963;28;20090;-33
2022/05/24 02:36:25;;;;;;;0.80;0.50;;;;;;;;;;4180062;28;20447;-33
2022/05/24 02:38:26;;;;;;;0.65;0.60;;;;;;;;;;4180317;28;20049;-33
2022/05/24 02:42:47;;;;;;;0.63;0.50;;;;;;;;;;4180147;28;20131;-33
2022/05/24 02:44:48;;;;;;;0.50;0.40;;;;;;;;;;4179519;28;20096;-34
2022/05/24 02:46:49;;;;;;;0.60;0.47;;;;;;;;;;4179894;28;20534;-34
2022/05/24 02:48:50;;;;;;;0.80;0.45;;;;;;;;;;4179766;28;20163;-34
2022/05/24 02:50:51;;;;;;;0.98;0.65;;;;;;;;;;4180062;28;20056;-34
2022/05/24 02:52:52;;;;;;;0.55;0.52;;;;;;;;;;4180100;28;20424;-34
2022/05/24 02:54:54;;;;;;;0.50;0.50;;;;;;;;;;4179578;28;20095;-34
2022/05/24 02:56:55;;;;;;;0.82;0.40;;;;;;;;;;4180001;28;20073;-34
2022/05/24 02:58:56;;;;;;;0.73;0.52;;;;;;;;;;4179388;28;20060;-34
2022/05/24 03:00:57;;;;;;;0.60;0.57;;;;;;;;;;4180002;28;20049;-34
2022/05/24 03:02:58;;;;;;;0.98;0.60;;;;;;;;;;4178427;28;20168;-34
2022/05/24 03:05:00;;;;;;;0.75;0.60;;;;;;;;;;4179041;28;20045;-34
2022/05/24 03:09:35;;;;;;;;;;;;;;;;;;4180377;28;20060;-34
2022/05/24 03:16:16;;;;;;;;;;;;;;;;;;4180232;28;20107;-34
2022/05/24 03:18:18;;;;;;;0.57;0.45;;;;;;;;;;4179438;28;20430;-34
2022/05/24 03:20:20;;;;;;;0.55;0.55;;;;;;;;;;4179443;28;20049;-34
2022/05/24 03:22:21;;;;;;;0.60;0.60;;;;;;;;;;4179545;28;20049;-34
2022/05/24 03:24:22;;;;;;;0.50;0.50;;;;;;;;;;4179567;28;20120;-34
2022/05/24 03:26:23;;;;;;;0.95;0.70;;;;;;;;;;4179568;28;20064;-34
2022/05/24 03:28:33;;;;;;;1.10;0.50;;;;;;;;;;4179470;28;20049;-34
2022/05/24 03:30:39;;;;;;;0.82;0.70;;;;;;;;;;4178941;28;20481;-35
2022/05/24 03:32:40;;;;;;;0.77;0.60;;;;;;;;;;4179759;28;20052;-34
2022/05/24 03:34:41;;;;;;;0.60;0.50;;;;;;;;;;4179194;28;20049;-34
2022/05/24 03:36:43;;;;;;;0.80;0.60;;;;;;;;;;4179409;28;20049;-34
2022/05/24 03:38:44;;;;;;;0.60;0.32;;;;;;;;;;4179027;28;20049;-34
2022/05/24 03:40:45;;;;;;;0.50;0.50;;;;;;;;;;4179667;28;20044;-34
2022/05/24 03:42:47;;;;;;;0.60;0.52;;;;;;;;;;4179211;28;20045;-34
2022/05/24 03:44:48;;;;;;;0.50;0.50;;;;;;;;;;4178813;28;20094;-34
2022/05/24 03:46:49;;;;;;;0.40;0.40;;;;;;;;;;4179265;28;20404;-34
2022/05/24 03:48:50;;;;;;;0.52;0.50;;;;;;;;;;4179070;28;20103;-34
2022/05/24 03:50:52;;;;;;;0.68;0.50;;;;;;;;;;4179324;28;20053;-34
2022/05/24 03:52:53;;;;;;;0.68;0.57;;;;;;;;;;4179198;28;20447;-34
2022/05/24 03:54:53;;;;;;;0.65;0.43;;;;;;;;;;4179117;28;20084;-34
2022/05/24 03:59:14;;;;;;;;;;;;;;;;;;4179241;28;20053;-34
2022/05/24 04:01:15;;;;;;;0.65;0.60;;;;;;;;;;4179256;28;20385;-34
2022/05/24 04:03:18;;;;;;;0.60;0.50;;;;;;;;;;4179941;28;20061;-34
2022/05/24 04:05:23;;;;;;;0.43;0.40;;;;;;;;;;4182600;28;20048;-34
2022/05/24 04:07:24;;;;;;;0.40;0.40;;;;;;;;;;4182527;28;20476;-33
2022/05/24 04:09:25;;;;;;;0.80;0.50;;;;;;;;;;4182181;28;20472;-33
2022/05/24 04:11:26;;;;;;;0.30;0.30;;;;;;;;;;4182551;28;20426;-33
2022/05/24 04:13:27;;;;;;;0.80;0.63;;;;;;;;;;4182320;28;20055;-33
2022/05/24 04:15:29;;;;;;;0.40;0.40;;;;;;;;;;4182204;28;20049;-33
2022/05/24 04:17:30;;;;;;;0.90;0.50;;;;;;;;;;4182777;28;20051;-33
2022/05/24 04:19:31;;;;;;;0.65;0.65;;;;;;;;;;4180752;28;20057;-33
2022/05/24 04:21:32;;;;;;;0.50;0.50;;;;;;;;;;4182217;28;20048;-33
2022/05/24 04:23:33;;;;;;;0.98;0.63;;;;;;;;;;4182183;28;20049;-34
2022/05/24 04:25:35;;;;;;;0.50;0.43;;;;;;;;;;4182386;28;20041;-34
2022/05/24 04:27:36;;;;;;;1.17;0.50;;;;;;;;;;4181026;28;20362;-34
2022/05/24 04:29:39;;;;;;;0.80;0.57;;;;;;;;;;4181920;28;20095;-34
2022/05/24 04:31:40;;;;;;;0.70;0.50;;;;;;;;;;4182106;28;20098;-34
2022/05/24 04:33:42;;;;;;;0.77;0.60;;;;;;;;;;4181790;28;20057;-34
2022/05/24 04:35:44;;;;;;;0.80;0.43;;;;;;;;;;4182049;28;20049;-34
2022/05/24 04:37:45;;;;;;;0.70;0.60;;;;;;;;;;4182137;28;20049;-34
2022/05/24 04:39:46;;;;;;;0.57;0.50;;;;;;;;;;4181741;28;20052;-34
2022/05/24 04:44:07;;;;;;;0.63;0.60;;;;;;;;;;4181414;28;20045;-34
2022/05/24 04:46:08;;;;;;;0.50;0.40;;;;;;;;;;4181919;28;20052;-34
2022/05/24 04:48:10;;;;;;;1.33;0.60;;;;;;;;;;4187168;28;20048;-33
2022/05/24 04:50:12;;;;;;;0.65;0.50;;;;;;;;;;4198250;28;20082;-33
2022/05/24 04:52:14;;;;;;;1.42;0.80;;;;;;;;;;4197936;28;20052;-33
2022/05/24 04:54:14;;;;;;;1.10;0.50;;;;;;;;;;4197720;28;20052;-34
2022/05/24 04:56:15;;;;;;;0.63;0.50;;;;;;;;;;4197882;28;20139;-34
2022/05/24 04:58:17;;;;;;;1.13;0.40;;;;;;;;;;4198178;28;20483;-34
2022/05/24 05:00:18;;;;;;;0.50;0.30;;;;;;;;;;4186196;28;20049;-33
2022/05/24 05:02:21;;;;;;;0.38;0.38;;;;;;;;;;4162655;28;20049;-34
2022/05/24 05:04:24;;;;;;;0.60;0.52;;;;;;;;;;4162871;28;20057;-33
2022/05/24 05:06:25;;;;;;;0.57;0.50;;;;;;;;;;4163292;28;20096;-34
2022/05/24 05:08:26;;;;;;;0.60;0.60;;;;;;;;;;4162767;28;20473;-33
2022/05/24 05:10:27;;;;;;;0.88;0.45;;;;;;;;;;4163148;28;20096;-33
2022/05/24 05:12:28;;;;;;;1.05;0.57;;;;;;;;;;4161597;28;20413;-36
2022/05/24 05:14:29;;;;;;;1.15;0.60;;;;;;;;;;4161387;28;20053;-33
2022/05/24 05:16:31;;;;;;;0.40;0.40;;;;;;;;;;4162870;28;20058;-34
2022/05/24 05:18:34;;;;;;;0.93;0.60;;;;;;;;;;4162932;28;20046;-34
2022/05/24 05:20:39;;;;;;;0.65;0.52;;;;;;;;;;4162981;28;20052;-34
2022/05/24 05:22:40;;;;;;;0.40;0.40;;;;;;;;;;4162959;28;20042;-33
2022/05/24 05:24:41;;;;;;;0.52;0.40;;;;;;;;;;4162186;28;20492;-33
2022/05/24 05:26:42;;;;;;;0.90;0.50;;;;;;;;;;4162825;28;20086;-34
2022/05/24 05:28:44;;;;;;;0.50;0.50;;;;;;;;;;4162255;28;20059;-34
2022/05/24 05:33:07;;;;;;;0.70;0.50;;;;;;;;;;4176657;28;20053;-34
2022/05/24 05:35:08;;;;;;;1.08;0.65;;;;;;;;;;4176789;28;20068;-34
2022/05/24 05:37:09;;;;;;;1.13;0.80;;;;;;;;;;4178347;28;20634;-34
2022/05/24 05:39:10;;;;;;;1.13;0.60;;;;;;;;;;4178679;28;20069;-33
2022/05/24 05:41:13;;;;;;;0.65;0.57;;;;;;;;;;4177896;28;20443;-34
2022/05/24 05:43:14;;;;;;;0.70;0.60;;;;;;;;;;4178252;28;20041;-34
2022/05/24 05:45:15;;;;;;;0.43;0.43;;;;;;;;;;4177835;28;20169;-34
2022/05/24 05:47:17;;;;;;;0.50;0.50;;;;;;;;;;4178067;28;20421;-34
2022/05/24 05:49:18;;;;;;;0.68;0.68;;;;;;;;;;4177231;28;20049;-34
2022/05/24 05:51:19;;;;;;;0.60;0.50;;;;;;;;;;4176881;28;20127;-34
2022/05/24 05:53:20;;;;;;;0.45;0.45;;;;;;;;;;4175688;28;20145;-33
2022/05/24 05:55:21;;;;;;;0.70;0.70;;;;;;;;;;4175712;28;20057;-33
2022/05/24 05:57:22;;;;;;;0.75;0.55;;;;;;;;;;4179147;28;20392;-34
2022/05/24 05:59:25;;;;;;;0.73;0.40;;;;;;;;;;4176461;28;20049;-34
2022/05/24 06:01:31;;;;;;;1.75;0.63;;;;;;;;;;4174483;28;20420;-34
2022/05/24 06:03:35;;;;;;;0.70;0.70;;;;;;;;;;4174424;28;20044;-34
2022/05/24 06:05:37;;;;;;;0.70;0.70;;;;;;;;;;4178877;28;20455;-33
2022/05/24 06:07:38;;;;;;;0.75;0.60;;;;;;;;;;4179363;28;20468;-34
2022/05/24 06:09:39;;;;;;;0.80;0.70;;;;;;;;;;4178730;28;20072;-34
2022/05/24 06:11:41;;;;;;;0.50;0.50;;;;;;;;;;4176419;28;20056;-34
2022/05/24 06:13:42;;;;;;;1.05;0.60;;;;;;;;;;4170190;28;20045;-34
2022/05/24 06:15:47;;;;;;;0.73;0.60;;;;;;;;;;4174628;28;20048;-34
2022/05/24 06:17:49;;;;;;;0.80;0.75;;;;;;;;;;4173651;28;20048;-34
2022/05/24 06:19:53;;;;;;;0.70;0.70;;;;;;;;;;4172138;28;20067;-34
2022/05/24 06:21:54;;;;;;;0.82;0.73;;;;;;;;;;4170478;28;20057;-34
2022/05/24 06:23:55;;;;;;;0.60;0.60;;;;;;;;;;4178881;28;20452;-33
2022/05/24 06:25:56;;;;;;;0.65;0.65;;;;;;;;;;4178689;28;20082;-34
2022/05/24 06:27:59;;;;;;;0.57;0.57;;;;;;;;;;4176799;28;20094;-34
2022/05/24 06:30:00;;;;;;;0.60;0.55;;;;;;;;;;4176051;28;20063;-34
2022/05/24 06:32:03;;;;;;;0.98;0.60;;;;;;;;;;4174378;28;20061;-34
2022/05/24 06:34:04;;;;;;;0.70;0.50;;;;;;;;;;4173517;28;20094;-34
2022/05/24 06:36:05;;;;;;;0.80;0.60;;;;;;;;;;4165994;28;20503;-34
2022/05/24 06:38:06;;;;;;;0.85;0.50;;;;;;;;;;4171219;28;20053;-34
2022/05/24 06:40:12;;;;;;;0.68;0.57;;;;;;;;;;4174421;28;20102;-34
2022/05/24 06:42:13;;;;;;;1.00;0.80;;;;;;;;;;4176743;28;20157;-34
2022/05/24 06:44:15;;;;;;;0.60;0.60;;;;;;;;;;4182720;28;20049;-35
2022/05/24 06:46:16;;;;;;;1.48;0.65;;;;;;;;;;4168042;28;20053;-34
2022/05/24 06:48:17;;;;;;;0.75;0.70;;;;;;;;;;4165158;28;20049;-34
2022/05/24 06:50:18;;;;;;;1.02;0.70;;;;;;;;;;4163654;28;20105;-35
2022/05/24 06:52:21;;;;;;;0.80;0.70;;;;;;;;;;4167331;28;20051;-35
2022/05/24 06:54:23;;;;;;;1.27;0.70;;;;;;;;;;4169195;28;20441;-35
2022/05/24 06:56:24;;;;;;;1.40;0.70;;;;;;;;;;4164078;28;20146;-35
2022/05/24 06:58:25;;;;;;;0.70;0.70;;;;;;;;;;4167475;28;20078;-35
2022/05/24 07:02:46;;;;;;;;;;;;;;;;;;4168988;28;20064;-35
2022/05/24 07:04:47;;;;;;;0.95;0.63;;;;;;;;;;4170805;28;19924;-35
2022/05/24 07:06:47;;;;;;;1.17;0.80;;;;;;;;;;4164309;28;20118;-35
2022/05/24 07:08:50;;;;;;;0.80;0.70;;;;;;;;;;4164831;28;20110;-35
2022/05/24 07:10:50;;;;;;;0.70;0.60;;;;;;;;;;4157188;28;20052;-35
2022/05/24 07:13:02;;;;;;;1.73;0.77;;;;;;;;;;4162458;28;20382;-35
2022/05/24 07:15:03;;;;;;;1.67;0.85;;;;;;;;;;4162739;28;20094;-35
2022/05/24 07:17:05;;;;;;;0.60;0.60;;;;;;;;;;4171427;28;20485;-35
2022/05/24 07:19:06;;;;;;;1.10;0.73;;;;;;;;;;4162261;28;20444;-35
2022/05/24 07:21:06;;;;;;;0.47;0.43;;;;;;;;;;4162604;28;20071;-34
2022/05/24 07:23:09;;;;;;;1.52;0.90;;;;;;;;;;4168459;28;20151;-35
2022/05/24 07:25:11;;;;;;;0.80;0.77;;;;;;;;;;4167223;28;20924;-35
2022/05/24 07:27:12;;;;;;;2.67;1.05;;;;;;;;;;4167286;28;20094;-35
2022/05/24 07:29:13;;;;;;;2.65;0.90;;;;;;;;;;4166056;28;20869;-35
2022/05/24 07:31:14;;;;;;;5.63;1.00;;;;;;;;;;4162185;28;20129;-35
2022/05/24 07:33:16;;;;;;;1.77;0.90;;;;;;;;;;4158753;28;20096;-35
2022/05/24 07:35:17;;;;;;;1.35;0.90;;;;;;;;;;4170052;28;20518;-35
2022/05/24 07:37:20;;;;;;;2.08;0.77;;;;;;;;;;4164432;28;20538;-35
2022/05/24 07:39:21;;;;;;;1.50;0.90;;;;;;;;;;4168154;28;20049;-34
2022/05/24 07:46:03;;;;;;;0.82;0.60;;;;;;;;;;4168291;28;21425;-35
2022/05/24 07:48:04;;;;;;;1.30;0.60;;;;;;;;;;4165244;28;20052;-35
2022/05/24 07:50:06;;;;;;;1.20;0.80;;;;;;;;;;4167429;28;21415;-35
2022/05/24 07:52:07;;;;;;;0.70;0.70;;;;;;;;;;4162993;28;20453;-35
2022/05/24 07:54:08;;;;;;;1.40;0.88;;;;;;;;;;4162387;28;20084;-35
2022/05/24 07:56:09;;;;;;;1.00;0.60;;;;;;;;;;4163801;28;20106;-35
2022/05/24 07:58:11;;;;;;;3.85;0.80;;;;;;;;;;4166263;28;20535;-35
2022/05/24 08:00:12;;;;;;;3.47;0.73;;;;;;;;;;4161154;28;20506;-35
2022/05/24 08:02:22;;;;;;;2.83;0.70;;;;;;;;;;4151661;28;20241;-36
2022/05/24 08:04:24;;;;;;;2.72;0.95;;;;;;;;;;4162259;28;20767;-35
2022/05/24 08:06:25;;;;;;;0.80;0.60;;;;;;;;;;4166138;28;20107;-35
2022/05/24 08:08:26;;;;;;;1.30;0.70;;;;;;;;;;4167348;28;20044;-35
2022/05/24 08:10:28;;;;;;;1.10;0.75;;;;;;;;;;4168136;28;20057;-36
2022/05/24 08:12:29;;;;;;;1.60;0.63;;;;;;;;;;4165217;28;20087;-36
2022/05/24 08:14:30;;;;;;;1.58;0.70;;;;;;;;;;4169319;28;20056;-35
2022/05/24 08:16:32;;;;;;;1.40;0.52;;;;;;;;;;4166687;28;20059;-36
2022/05/24 08:18:33;;;;;;;1.85;0.70;;;;;;;;;;4166819;28;20555;-36
2022/05/24 08:20:34;;;;;;;1.65;0.70;;;;;;;;;;4167886;28;20071;-36
2022/05/24 08:22:34;;;;;;;2.00;0.75;;;;;;;;;;4166170;28;20110;-35
2022/05/24 08:24:35;;;;;;;1.10;0.70;;;;;;;;;;4168856;28;20049;-35
2022/05/24 08:26:39;;;;;;;1.23;0.70;;;;;;;;;;4166442;28;20053;-35
2022/05/24 08:28:41;;;;;;;1.70;0.70;;;;;;;;;;4169168;28;20087;-36
2022/05/24 08:30:43;;;;;;;0.93;0.70;;;;;;;;;;4153812;28;20048;-36
2022/05/24 08:32:46;;;;;;;1.38;0.95;;;;;;;;;;4152393;28;20060;-36
2022/05/24 08:34:48;;;;;;;1.05;0.82;;;;;;;;;;4153169;28;20052;-36
2022/05/24 08:36:49;;;;;;;0.75;0.65;;;;;;;;;;4159469;28;20396;-36
2022/05/24 08:38:50;;;;;;;0.77;0.70;;;;;;;;;;4158737;28;20144;-36
2022/05/24 08:40:55;;;;;;;1.20;0.63;;;;;;;;;;4161342;28;20144;-36
2022/05/24 08:43:05;;;;;;;1.33;0.80;;;;;;;;;;4168029;28;20094;-36
2022/05/24 08:49:52;;;;;;;0.90;0.60;;;;;;;;;;4160271;28;20189;-36
2022/05/24 08:51:59;;;;;;;1.30;0.65;;;;;;;;;;4182467;28;20056;-36
2022/05/24 08:54:08;;;;;;;0.95;0.70;;;;;;;;;;4160082;28;20111;-36
2022/05/24 08:56:12;;;;;;;0.40;0.40;;;;;;;;;;4156641;28;20079;-36
2022/05/24 08:58:21;;;;;;;0.82;0.50;;;;;;;;;;4166051;28;20434;-36
2022/05/24 09:00:28;;;;;;;3.20;1.07;;;;;;;;;;4154399;28;20056;-36
2022/05/24 09:02:29;;;;;;;0.45;0.45;;;;;;;;;;4159769;28;20049;-36
2022/05/24 09:04:30;;;;;;;2.42;0.80;;;;;;;;;;4162085;28;20053;-36
2022/05/24 09:06:38;;;;;;;1.00;0.63;;;;;;;;;;4167483;28;20533;-36
2022/05/24 09:08:59;;;;;;;1.95;0.90;;;;;;;;;;4175477;28;20648;-36
2022/05/24 09:11:06;;;;;;;1.63;0.70;;;;;;;;;;4172539;28;21109;-36
2022/05/24 09:13:19;;;;;;;0.90;0.68;;;;;;;;;;4169477;28;20053;-36
2022/05/24 09:15:39;;;;;;;0.82;0.80;;;;;;;;;;4164167;28;20060;-36
2022/05/24 09:17:40;;;;;;;;;;;;;;;;;;4166782;28;20056;-36
2022/05/24 09:19:42;;;;;;;1.15;0.60;;;;;;;;;;4163222;28;19978;-36
2022/05/24 09:21:44;;;;;;;0.75;0.68;;;;;;;;;;4161736;28;20048;-36
2022/05/24 09:23:47;;;;;;;1.15;0.60;;;;;;;;;;4168678;28;20110;-36
2022/05/24 09:25:53;;;;;;;1.20;0.68;;;;;;;;;;4166680;28;20379;-35
2022/05/24 09:27:55;;;;;;;2.17;0.68;;;;;;;;;;4168364;28;20048;-36
2022/05/24 09:29:59;;;;;;;0.98;0.40;;;;;;;;;;4167781;28;20814;-36
2022/05/24 09:32:07;;;;;;;0.60;0.50;;;;;;;;;;4156065;28;20777;-36
2022/05/24 09:34:28;;;;;;;0.88;0.70;;;;;;;;;;4164707;28;20052;-36
2022/05/24 09:36:39;;;;;;;0.77;0.70;;;;;;;;;;4164889;28;20060;-37
2022/05/24 09:38:42;;;;;;;0.85;0.70;;;;;;;;;;4167701;28;20053;-35
2022/05/24 09:40:45;;;;;;;0.75;0.60;;;;;;;;;;4164586;28;20380;-36
2022/05/24 09:42:47;;;;;;;0.70;0.50;;;;;;;;;;4170872;28;20048;-35
2022/05/24 09:45:11;;;;;;;0.80;0.50;;;;;;;;;;4167126;28;20130;-35
2022/05/24 09:47:32;;;;;;;1.95;0.70;;;;;;;;;;4153557;28;20437;-36
2022/05/24 09:49:35;;;;;;;1.08;0.60;;;;;;;;;;4166427;28;20380;-36
2022/05/24 09:51:38;;;;;;;0.70;0.68;;;;;;;;;;4161294;28;20048;-36
2022/05/24 09:53:49;;;;;;;0.70;0.70;;;;;;;;;;4162728;28;20059;-35
2022/05/24 09:55:52;;;;;;;0.60;0.60;;;;;;;;;;4161054;28;20480;-35
2022/05/24 09:57:53;;;;;;;0.77;0.70;;;;;;;;;;4160344;28;20110;-35
2022/05/24 10:00:12;;;;;;;1.45;0.70;;;;;;;;;;4159127;28;20170;-34
2022/05/24 10:02:24;;;;;;;0.98;0.70;;;;;;;;;;4165475;28;20052;-34
2022/05/24 10:04:27;;;;;;;1.05;0.60;;;;;;;;;;4165397;28;20048;-34
2022/05/24 10:06:29;;;;;;;0.60;0.50;;;;;;;;;;4167185;28;20098;-34
2022/05/24 10:08:34;;;;;;;0.70;0.60;;;;;;;;;;4186052;28;20146;-34
2022/05/24 10:10:40;;;;;;;1.40;0.50;;;;;;;;;;4174225;28;20055;-37
2022/05/24 10:12:41;;;;;;;1.13;0.60;;;;;;;;;;4203795;28;20572;-35
2022/05/24 10:15:12;;;;;;;1.10;0.55;;;;;;;;;;4174426;28;20099;-35
2022/05/24 10:17:31;;;;;;;3.25;0.47;;;;;;;;;;4165733;28;20080;-35
2022/05/24 10:19:35;;;;;;;0.55;0.50;;;;;;;;;;4173632;28;20480;-35
2022/05/24 10:21:52;;;;;;;0.60;0.52;;;;;;;;;;4174045;28;20094;-35
2022/05/24 10:24:06;;;;;;;0.50;0.40;;;;;;;;;;4178022;28;20073;-35
2022/05/24 10:26:07;;;;;;;0.75;0.55;;;;;;;;;;4171288;28;20130;-35
2022/05/24 10:28:08;;;;;;;1.30;0.47;;;;;;;;;;4194166;28;20477;-35
2022/05/24 10:30:19;;;;;;;1.02;0.60;;;;;;;;;;4147286;28;20052;-35
2022/05/24 10:40:11;;;;;;;0.50;0.40;;;;;;;;;;4167809;28;20094;-34
2022/05/24 10:42:21;;;;;;;0.65;0.55;;;;;;;;;;4144645;28;20053;-34
2022/05/24 10:44:22;;;;;;;;;;;;;;;;;;4164744;28;20458;-34
2022/05/24 10:46:29;;;;;;;0.70;0.50;;;;;;;;;;4159637;28;20669;-34
2022/05/24 10:48:43;;;;;;;1.55;0.73;;;;;;;;;;4172709;28;20056;-34
2022/05/24 10:50:46;;;;;;;1.23;0.70;;;;;;;;;;4172754;28;20459;-34
2022/05/24 10:52:52;;;;;;;1.20;0.68;;;;;;;;;;4176281;28;20044;-34
2022/05/24 10:54:58;;;;;;;1.70;0.60;;;;;;;;;;4161969;28;20052;-34
2022/05/24 10:57:03;;;;;;;1.15;0.50;;;;;;;;;;4159536;28;20098;-35
2022/05/24 10:59:11;;;;;;;0.90;0.40;;;;;;;;;;4166315;28;20048;-35
2022/05/24 11:01:26;;;;;;;0.95;0.60;;;;;;;;;;4161675;28;20102;-34
2022/05/24 11:03:30;;;;;;;0.93;0.60;;;;;;;;;;4160222;28;20205;-34
2022/05/24 11:05:43;;;;;;;0.70;0.40;;;;;;;;;;4166312;28;20057;-34
2022/05/24 11:07:47;;;;;;;0.85;0.50;;;;;;;;;;4168084;28;20488;-35
2022/05/24 11:09:54;;;;;;;1.77;0.70;;;;;;;;;;4157542;28;20087;-34
2022/05/24 11:11:55;;;;;;;0.63;0.40;;;;;;;;;;4159312;28;20418;-34
2022/05/24 11:13:56;;;;;;;2.50;0.60;;;;;;;;;;4161526;28;20491;-34
2022/05/24 11:16:00;;;;;;;1.17;0.77;;;;;;;;;;4165097;28;20105;-34
2022/05/24 11:18:12;;;;;;;1.80;0.40;;;;;;;;;;4150644;28;20049;-34
2022/05/24 11:20:14;;;;;;;1.58;0.70;;;;;;;;;;4168971;28;20048;-34
2022/05/24 11:22:30;;;;;;;2.92;0.70;;;;;;;;;;4166233;28;20102;-35
2022/05/24 11:24:37;;;;;;;1.30;0.63;;;;;;;;;;4180050;28;20102;-35
2022/05/24 11:26:39;;;;;;;1.58;0.50;;;;;;;;;;4198532;28;20519;-35
2022/05/24 11:28:47;;;;;;;0.95;0.60;;;;;;;;;;4167069;28;20102;-34
2022/05/24 11:30:48;;;;;;;0.90;0.60;;;;;;;;;;4172564;28;20060;-35
2022/05/24 11:33:09;;;;;;;0.73;0.50;;;;;;;;;;4163815;28;20142;-37
2022/05/24 11:35:12;;;;;;;0.73;0.68;;;;;;;;;;4165995;28;20053;-35
2022/05/24 11:37:30;;;;;;;0.43;0.43;;;;;;;;;;4164852;28;20755;-35
2022/05/24 11:39:38;;;;;;;2.15;0.60;;;;;;;;;;4171596;28;20550;-34
2022/05/24 11:41:40;;;;;;;0.82;0.80;;;;;;;;;;4170564;28;20311;-35
2022/05/24 11:43:44;;;;;;;0.68;0.50;;;;;;;;;;4162504;28;20053;-34
2022/05/24 11:45:53;;;;;;;1.00;0.52;;;;;;;;;;4166097;28;20118;-34
2022/05/24 11:47:59;;;;;;;0.65;0.52;;;;;;;;;;4169084;28;20356;-35
2022/05/24 11:50:01;;;;;;;0.50;0.50;;;;;;;;;;4169417;28;20102;-34
2022/05/24 11:52:22;;;;;;;1.25;0.70;;;;;;;;;;4173034;28;20056;-34
2022/05/24 11:54:29;;;;;;;0.77;0.50;;;;;;;;;;4174424;28;20364;-34
2022/05/24 11:56:30;;;;;;;0.70;0.68;;;;;;;;;;4171909;28;20102;-34
2022/05/24 11:58:31;;;;;;;5.63;0.70;;;;;;;;;;4153407;28;20431;-34
2022/05/24 12:00:33;;;;;;;3.65;0.73;;;;;;;;;;4157655;28;20083;-34
2022/05/24 12:07:54;;;;;;;1.67;0.60;;;;;;;;;;4157365;28;20590;-34
2022/05/24 12:10:05;;;;;;;1.23;0.63;;;;;;;;;;4163297;28;20056;-35
2022/05/24 12:12:20;;;;;;;1.00;0.80;;;;;;;;;;4168054;28;20460;-35
2022/05/24 12:14:24;;;;;;;1.77;0.80;;;;;;;;;;4161753;28;20144;-34
2022/05/24 12:16:33;;;;;;;3.33;0.70;;;;;;;;;;4165388;28;20585;-35
2022/05/24 12:18:53;;;;;;;0.70;0.60;;;;;;;;;;4161349;28;20456;-36
2022/05/24 12:20:56;;;;;;;0.95;0.50;;;;;;;;;;4170142;28;20354;-36
2022/05/24 12:23:18;;;;;;;1.30;0.60;;;;;;;;;;4168818;28;20053;-36
2022/05/24 12:25:38;;;;;;;1.02;0.57;;;;;;;;;;4177380;28;20067;-35
2022/05/24 12:27:45;;;;;;;0.90;0.80;;;;;;;;;;4174697;28;20388;-36
2022/05/24 12:29:54;;;;;;;2.83;0.63;;;;;;;;;;4174142;28;20514;-35
2022/05/24 12:32:01;;;;;;;0.50;0.50;;;;;;;;;;4170991;28;20573;-35
2022/05/24 12:34:13;;;;;;;2.30;0.63;;;;;;;;;;4171185;28;20485;-35
2022/05/24 12:36:13;;;;;;;1.27;0.50;;;;;;;;;;4171884;28;20182;-35
2022/05/24 12:38:16;;;;;;;1.90;0.73;;;;;;;;;;4171981;28;20056;-35
2022/05/24 12:40:17;;;;;;;1.38;0.60;;;;;;;;;;4172430;28;20059;-35
2022/05/24 12:42:18;;;;;;;0.52;0.52;;;;;;;;;;4174372;28;20183;-34
2022/05/24 12:44:21;;;;;;;0.60;0.45;;;;;;;;;;4198549;28;20120;-34
2022/05/24 12:46:23;;;;;;;0.93;0.60;;;;;;;;;;4180874;28;20122;-34
2022/05/24 12:48:24;;;;;;;1.33;0.70;;;;;;;;;;4173994;28;20090;-34
2022/05/24 12:50:28;;;;;;;0.98;0.68;;;;;;;;;;4176501;28;20443;-34
2022/05/24 12:52:31;;;;;;;1.02;0.82;;;;;;;;;;4175411;28;20484;-34
2022/05/24 12:54:40;;;;;;;1.27;0.80;;;;;;;;;;4176830;28;20052;-34
2022/05/24 12:56:58;;;;;;;2.58;0.80;;;;;;;;;;4167719;28;20052;-35
2022/05/24 12:59:08;;;;;;;1.17;0.70;;;;;;;;;;4173861;28;20097;-36
2022/05/24 13:01:14;;;;;;;1.35;0.77;;;;;;;;;;4161705;28;20055;-35
2022/05/24 13:03:23;;;;;;;1.38;0.82;;;;;;;;;;4166406;28;20056;-36
2022/05/24 13:05:39;;;;;;;2.47;0.82;;;;;;;;;;4166476;28;20052;-36
2022/05/24 13:07:45;;;;;;;0.68;0.68;;;;;;;;;;4169728;28;20094;-36
2022/05/24 13:09:48;;;;;;;0.70;0.60;;;;;;;;;;4170318;28;20045;-35
2022/05/24 13:12:09;;;;;;;1.25;0.68;;;;;;;;;;4165764;28;20057;-36
2022/05/24 13:14:18;;;;;;;2.13;0.63;;;;;;;;;;4171707;28;20071;-36